Time;durP1;ratioP1;P1;durP2;ratioP2;P2;SDS_P1;SDS_P2;PMS_P1;PMS_P2;Temp;Humidity;BMP_temperature;BMP_pressure;BME280_temperature;BME280_humidity;BME280_pressure;Samples;Min_cycle;Max_cycle;Signal;HPM_P1;HPM_P2
2022/06/16 00:00:28;;;;;;;8.02;4.10;;;20.80;54.50;;;;;;4968130;28;20175;-89
2022/06/16 00:02:54;;;;;;;7.10;3.90;;;20.80;54.80;;;;;;4978980;28;20059;-88
2022/06/16 00:05:23;;;;;;;6.68;4.00;;;20.80;55.00;;;;;;4979250;28;20607;-88
2022/06/16 00:07:48;;;;;;;9.18;4.32;;;20.80;54.90;;;;;;4979416;28;20034;-88
2022/06/16 00:10:16;;;;;;;10.10;3.97;;;20.80;55.10;;;;;;4977583;28;20485;-89
2022/06/16 00:12:42;;;;;;;7.32;3.92;;;20.50;55.60;;;;;;4998158;28;20062;-88
2022/06/16 00:15:10;;;;;;;10.50;4.35;;;20.50;55.70;;;;;;4998154;28;20607;-88
2022/06/16 00:17:36;;;;;;;7.97;4.38;;;20.50;55.70;;;;;;4993358;28;20030;-88
2022/06/16 00:20:04;;;;;;;6.07;3.95;;;20.40;55.80;;;;;;4978711;28;20019;-89
2022/06/16 00:22:33;;;;;;;6.38;4.03;;;20.40;55.80;;;;;;4977330;28;20042;-88
2022/06/16 00:24:59;;;;;;;6.68;4.00;;;20.40;55.90;;;;;;4977497;28;20027;-87
2022/06/16 00:27:24;;;;;;;7.68;3.90;;;20.40;55.50;;;;;;4977034;28;20401;-87
2022/06/16 00:29:50;;;;;;;9.88;4.28;;;20.40;55.90;;;;;;4980603;28;20409;-88
2022/06/16 00:32:16;;;;;;;8.35;4.30;;;20.40;55.70;;;;;;4965275;28;20053;-88
2022/06/16 00:34:42;;;;;;;7.70;4.40;;;20.40;55.50;;;;;;4961187;28;20050;-87
2022/06/16 00:37:08;;;;;;;8.50;4.20;;;20.30;55.40;;;;;;4959125;28;20031;-89
2022/06/16 00:39:34;;;;;;;8.35;4.07;;;20.30;55.90;;;;;;4960410;28;20020;-88
2022/06/16 00:42:16;;;;;;;6.30;4.13;;;20.30;55.50;;;;;;4974289;28;20070;-88
2022/06/16 00:44:45;;;;;;;7.07;3.90;;;20.30;55.70;;;;;;4959028;28;20038;-89
2022/06/16 00:47:11;;;;;;;5.80;4.40;;;20.30;56.00;;;;;;4961237;28;20031;-88
2022/06/16 00:49:41;;;;;;;12.10;4.65;;;20.20;56.10;;;;;;4973877;28;20402;-88
2022/06/16 00:52:12;;;;;;;7.72;4.35;;;20.30;56.10;;;;;;4960534;28;20034;-89
2022/06/16 00:54:46;;;;;;;9.18;3.88;;;20.20;55.80;;;;;;4990121;28;20113;-88
2022/06/16 00:57:16;;;;;;;6.05;3.90;;;20.20;56.40;;;;;;4980067;28;20023;-89
2022/06/16 00:59:43;;;;;;;8.77;4.18;;;20.20;56.30;;;;;;4973077;28;20028;-89
2022/06/16 01:02:10;;;;;;;9.07;4.97;;;20.20;56.40;;;;;;4960199;28;20035;-89
2022/06/16 01:04:52;;;;;;;6.80;4.00;;;20.10;56.60;;;;;;4959596;28;20055;-88
2022/06/16 01:07:23;;;;;;;6.55;3.70;;;20.00;56.70;;;;;;4973346;28;20031;-87
2022/06/16 01:09:49;;;;;;;5.60;3.85;;;20.00;56.80;;;;;;4975327;28;20024;-88
2022/06/16 01:15:34;;;;;;;;;;;19.90;57.10;;;;;;4992851;28;20086;-89
2022/06/16 01:18:37;;;;;;;7.50;4.05;;;19.90;56.80;;;;;;4973445;28;19907;-90
2022/06/16 01:21:33;;;;;;;5.65;4.03;;;19.80;57.70;;;;;;4960523;28;20042;-88
2022/06/16 01:24:29;;;;;;;5.63;4.07;;;19.80;57.60;;;;;;4973091;28;20023;-88
2022/06/16 01:27:16;;;;;;;6.38;4.55;;;19.80;57.90;;;;;;4960121;28;20030;-88
2022/06/16 01:30:01;;;;;;;7.70;4.30;;;19.80;57.70;;;;;;4957993;28;20031;-88
2022/06/16 01:32:58;;;;;;;9.23;4.60;;;19.80;57.80;;;;;;4960730;28;20521;-88
2022/06/16 01:35:26;;;;;;;7.88;4.95;;;19.70;58.20;;;;;;4972831;28;20027;-88
2022/06/16 01:38:07;;;;;;;7.47;4.18;;;19.80;58.00;;;;;;4960286;28;20056;-88
2022/06/16 01:40:40;;;;;;;6.10;3.95;;;19.70;58.20;;;;;;4965715;28;20080;-88
2022/06/16 01:43:47;;;;;;;6.43;4.45;;;19.70;58.50;;;;;;4977588;28;20055;-88
2022/06/16 01:46:26;;;;;;;7.70;4.43;;;19.50;58.90;;;;;;4976645;28;20041;-89
2022/06/16 01:48:59;;;;;;;10.20;5.13;;;19.50;58.70;;;;;;4979004;28;20093;-89
2022/06/16 01:51:59;;;;;;;7.07;4.57;;;19.50;59.10;;;;;;4975469;28;20562;-88
2022/06/16 01:54:49;;;;;;;9.88;4.32;;;19.50;59.40;;;;;;4979109;28;20030;-88
2022/06/16 01:57:25;;;;;;;;;;;19.40;59.50;;;;;;4977361;28;20023;-89
2022/06/16 01:59:51;;;;;;;7.28;4.20;;;19.40;59.80;;;;;;4963618;28;20005;-89
2022/06/16 02:02:19;;;;;;;8.02;4.18;;;19.40;59.50;;;;;;4957440;28;20129;-89
2022/06/16 02:04:56;;;;;;;8.05;4.43;;;19.30;59.90;;;;;;4958677;28;20023;-87
2022/06/16 02:07:31;;;;;;;7.10;4.45;;;19.30;60.10;;;;;;4955681;28;20063;-88
2022/06/16 02:10:01;;;;;;;9.50;5.05;;;19.30;60.40;;;;;;4957503;28;20019;-88
2022/06/16 02:15:37;;;;;;;9.73;4.10;;;19.30;60.40;;;;;;4957765;29;20034;-87
2022/06/16 02:18:08;;;;;;;9.43;4.40;;;19.30;60.60;;;;;;4958705;28;20066;-88
2022/06/16 02:21:10;;;;;;;6.13;4.30;;;19.30;60.40;;;;;;4972127;28;20139;-89
2022/06/16 02:23:36;;;;;;;10.60;4.10;;;19.20;61.00;;;;;;4973185;28;20062;-87
2022/06/16 02:26:02;;;;;;;10.68;4.53;;;19.20;61.00;;;;;;4973725;28;20031;-87
2022/06/16 02:28:28;;;;;;;10.18;4.55;;;19.20;60.90;;;;;;4979102;28;20035;-88
2022/06/16 02:31:27;;;;;;;11.75;4.60;;;19.20;61.70;;;;;;4972168;28;20817;-88
2022/06/16 02:34:05;;;;;;;7.15;4.57;;;19.10;61.40;;;;;;4959335;28;20067;-88
2022/06/16 02:36:39;;;;;;;11.27;5.03;;;19.10;61.40;;;;;;4955837;28;20027;-87
2022/06/16 02:39:20;;;;;;;8.30;4.78;;;19.00;61.10;;;;;;4968463;28;20030;-88
2022/06/16 02:42:26;;;;;;;10.40;4.47;;;19.00;61.20;;;;;;4976285;28;20505;-88
2022/06/16 02:45:10;;;;;;;10.52;5.15;;;19.00;61.70;;;;;;4977570;28;20086;-89
2022/06/16 02:48:10;;;;;;;6.10;4.47;;;19.00;62.20;;;;;;4975352;28;20410;-88
2022/06/16 02:50:36;;;;;;;6.80;4.60;;;19.00;62.00;;;;;;4978018;28;20098;-89
2022/06/16 02:56:45;;;;;;;7.53;4.53;;;18.90;61.70;;;;;;4975197;28;20086;-87
2022/06/16 02:59:17;;;;;;;10.57;5.10;;;18.90;62.30;;;;;;4976419;28;20038;-87
2022/06/16 03:01:43;;;;;;;10.55;5.28;;;18.90;62.40;;;;;;4970520;28;20031;-86
2022/06/16 03:04:14;;;;;;;9.00;5.38;;;18.80;62.70;;;;;;4958482;29;20028;-88
2022/06/16 03:06:41;;;;;;;7.45;5.20;;;18.80;62.30;;;;;;4957032;28;20078;-87
2022/06/16 03:09:08;;;;;;;5.78;4.55;;;18.80;62.60;;;;;;4958606;28;20422;-88
2022/06/16 03:11:35;;;;;;;10.50;4.35;;;18.80;62.60;;;;;;4970389;28;20063;-88
2022/06/16 03:14:01;;;;;;;9.52;5.15;;;18.80;62.50;;;;;;4978385;28;20023;-88
2022/06/16 03:16:27;;;;;;;12.07;5.20;;;18.80;63.00;;;;;;4976173;28;20113;-88
2022/06/16 03:18:53;;;;;;;7.72;5.40;;;18.80;62.80;;;;;;4995765;28;20046;-88
2022/06/16 03:21:19;;;;;;;11.27;5.75;;;18.70;62.80;;;;;;4970799;28;20035;-88
2022/06/16 03:23:44;;;;;;;11.38;5.75;;;18.60;63.00;;;;;;4960281;29;20067;-89
2022/06/16 03:26:10;;;;;;;8.73;5.32;;;18.60;63.00;;;;;;4962271;28;20042;-88
2022/06/16 03:28:36;;;;;;;8.65;5.43;;;18.60;63.30;;;;;;4960289;28;20493;-88
2022/06/16 03:31:02;;;;;;;9.57;5.00;;;18.60;63.00;;;;;;4962853;28;20024;-88
2022/06/16 03:33:27;;;;;;;8.43;5.13;;;18.60;63.50;;;;;;4960206;28;20015;-88
2022/06/16 03:35:54;;;;;;;9.60;5.50;;;18.60;62.70;;;;;;4978882;28;20065;-87
2022/06/16 03:40:52;;;;;;;7.40;4.88;;;18.60;62.70;;;;;;4979216;28;20129;-89
2022/06/16 03:43:17;;;;;;;12.45;5.25;;;18.50;62.90;;;;;;4962885;28;20067;-89
2022/06/16 03:45:43;;;;;;;8.50;4.85;;;18.50;62.60;;;;;;4960091;28;20038;-88
2022/06/16 03:48:09;;;;;;;8.02;5.00;;;18.50;62.70;;;;;;4962424;28;20193;-88
2022/06/16 03:50:35;;;;;;;9.02;5.55;;;18.50;63.00;;;;;;4958625;28;20032;-87
2022/06/16 03:53:00;;;;;;;8.32;5.70;;;18.50;63.40;;;;;;4961217;28;20447;-88
2022/06/16 03:55:26;;;;;;;7.40;5.13;;;18.30;64.00;;;;;;4960719;28;20038;-89
2022/06/16 03:57:53;;;;;;;10.40;5.35;;;18.40;63.40;;;;;;4959726;28;20027;-88
2022/06/16 04:00:20;;;;;;;10.65;6.00;;;18.30;63.70;;;;;;4962131;28;20098;-89
2022/06/16 04:02:47;;;;;;;10.57;5.80;;;18.30;63.50;;;;;;4968942;28;20015;-88
2022/06/16 04:05:13;;;;;;;13.25;5.38;;;18.30;63.80;;;;;;4981352;28;20410;-88
2022/06/16 04:07:39;;;;;;;10.52;5.07;;;18.30;63.90;;;;;;4974102;28;20038;-88
2022/06/16 04:10:06;;;;;;;9.23;5.20;;;18.30;63.90;;;;;;4975505;28;20086;-87
2022/06/16 04:12:32;;;;;;;8.63;4.93;;;18.30;63.50;;;;;;4994106;28;20033;-88
2022/06/16 04:14:58;;;;;;;8.07;5.70;;;18.30;64.10;;;;;;4997686;28;20022;-89
2022/06/16 04:17:24;;;;;;;8.50;5.25;;;18.30;63.90;;;;;;4980106;28;20031;-89
2022/06/16 04:22:34;;;;;;;8.15;5.35;;;18.30;63.90;;;;;;4959690;29;20030;-88
2022/06/16 04:25:00;;;;;;;9.57;6.13;;;18.30;64.20;;;;;;4959697;28;20031;-88
2022/06/16 04:27:26;;;;;;;7.70;5.95;;;18.30;64.10;;;;;;4959666;28;20490;-89
2022/06/16 04:29:52;;;;;;;10.50;5.43;;;18.30;64.30;;;;;;4958677;28;20106;-88
2022/06/16 04:32:18;;;;;;;10.23;5.70;;;18.30;64.70;;;;;;4959497;28;20094;-89
2022/06/16 04:34:44;;;;;;;13.38;5.57;;;18.30;64.70;;;;;;4958776;28;20035;-88
2022/06/16 04:37:11;;;;;;;12.40;6.28;;;18.30;64.50;;;;;;4960491;28;20111;-87
2022/06/16 04:39:37;;;;;;;10.77;6.30;;;18.30;64.20;;;;;;4978210;28;20833;-87
2022/06/16 04:42:03;;;;;;;10.18;5.78;;;18.30;64.70;;;;;;4973883;28;20047;-88
2022/06/16 04:44:30;;;;;;;11.48;6.00;;;18.30;64.80;;;;;;4958769;28;20134;-82
2022/06/16 04:46:55;;;;;;;9.52;6.05;;;18.30;65.30;;;;;;4973624;28;20062;-85
2022/06/16 04:49:21;;;;;;;10.93;6.05;;;18.30;65.00;;;;;;4958727;28;20540;-86
2022/06/16 04:51:47;;;;;;;10.90;6.70;;;18.30;65.00;;;;;;4959142;28;20028;-86
2022/06/16 04:54:12;;;;;;;11.07;6.80;;;18.30;65.00;;;;;;4957851;28;20067;-82
2022/06/16 04:56:38;;;;;;;11.73;6.35;;;18.30;65.80;;;;;;4958109;28;20035;-84
2022/06/16 04:59:04;;;;;;;9.50;5.88;;;18.30;65.50;;;;;;4973351;28;20031;-83
2022/06/16 05:01:29;;;;;;;11.13;6.38;;;18.30;65.50;;;;;;4974778;28;20034;-84
2022/06/16 05:03:55;;;;;;;9.32;5.65;;;18.30;65.30;;;;;;4974288;28;20023;-82
2022/06/16 05:06:21;;;;;;;14.00;6.20;;;18.30;65.80;;;;;;4977325;28;20490;-81
2022/06/16 05:08:48;;;;;;;12.07;5.90;;;18.30;65.80;;;;;;4969170;28;20039;-80
2022/06/16 05:11:14;;;;;;;11.93;6.05;;;18.20;65.90;;;;;;4981407;28;20030;-82
2022/06/16 05:13:40;;;;;;;7.95;5.78;;;18.30;65.40;;;;;;4975567;28;20053;-79
2022/06/16 05:16:06;;;;;;;11.73;6.75;;;18.40;65.70;;;;;;4976174;28;20030;-81
2022/06/16 05:18:32;;;;;;;8.82;6.15;;;18.50;65.10;;;;;;4957856;28;20039;-82
2022/06/16 05:21:05;;;;;;;6.97;5.35;;;18.50;64.80;;;;;;4970978;28;20027;-81
2022/06/16 05:23:31;;;;;;;11.73;5.88;;;18.50;64.80;;;;;;4988674;28;20027;-81
2022/06/16 05:25:57;;;;;;;10.68;6.00;;;18.50;64.70;;;;;;4977061;28;20038;-82
2022/06/16 05:28:23;;;;;;;12.40;6.45;;;18.60;65.00;;;;;;4985146;28;20028;-83
2022/06/16 05:30:48;;;;;;;12.50;6.07;;;18.60;65.00;;;;;;4975649;28;20078;-83
2022/06/16 05:33:14;;;;;;;9.65;5.13;;;18.50;65.40;;;;;;4969473;28;20027;-83
2022/06/16 05:35:40;;;;;;;9.05;6.20;;;18.60;65.00;;;;;;4956332;28;20038;-84
2022/06/16 05:38:06;;;;;;;10.20;6.28;;;18.60;64.80;;;;;;4970559;28;20109;-83
2022/06/16 05:40:31;;;;;;;10.88;5.82;;;18.70;64.80;;;;;;4975853;28;20023;-84
2022/06/16 05:42:57;;;;;;;7.15;4.50;;;18.70;64.90;;;;;;4975214;28;20046;-84
2022/06/16 05:45:23;;;;;;;12.27;5.60;;;18.80;64.20;;;;;;4970328;28;20031;-84
2022/06/16 05:47:49;;;;;;;11.85;5.65;;;18.80;64.70;;;;;;4957287;28;20054;-83
2022/06/16 05:50:17;;;;;;;11.55;4.95;;;18.80;63.80;;;;;;4957350;28;20023;-83
2022/06/16 05:52:43;;;;;;;8.90;5.15;;;18.90;63.90;;;;;;4956620;28;20023;-83
2022/06/16 05:55:14;;;;;;;7.82;5.07;;;18.90;64.10;;;;;;4957334;28;20023;-82
2022/06/16 05:57:39;;;;;;;;;;;19.00;63.70;;;;;;4957645;28;20445;-83
2022/06/16 06:00:06;;;;;;;11.50;4.55;;;19.10;63.20;;;;;;4972193;28;19910;-83
2022/06/16 06:02:32;;;;;;;7.75;5.07;;;19.10;63.10;;;;;;4956943;28;20038;-83
2022/06/16 06:04:58;;;;;;;7.93;4.78;;;19.10;63.20;;;;;;4972017;28;20031;-83
2022/06/16 06:07:23;;;;;;;7.53;5.10;;;19.10;63.20;;;;;;4956899;28;20039;-83
2022/06/16 06:18:16;;;;;;;8.02;5.15;;;19.10;63.60;;;;;;4957372;29;20071;-83
2022/06/16 06:20:42;;;;;;;7.68;4.50;;;19.20;63.90;;;;;;4956059;28;20095;-83
2022/06/16 06:23:08;;;;;;;15.30;4.03;;;19.20;63.20;;;;;;4958870;28;20035;-83
2022/06/16 06:25:34;;;;;;;8.73;4.32;;;19.20;63.30;;;;;;4975838;28;20041;-83
2022/06/16 06:28:00;;;;;;;11.45;4.53;;;19.30;63.00;;;;;;4966545;28;20089;-84
2022/06/16 06:30:28;;;;;;;12.75;5.30;;;19.40;63.20;;;;;;4956894;28;20043;-83
2022/06/16 06:32:55;;;;;;;8.43;4.22;;;19.40;62.50;;;;;;4956900;28;20122;-83
2022/06/16 06:35:21;;;;;;;8.00;4.88;;;19.50;62.50;;;;;;4972044;28;20093;-84
2022/06/16 06:37:47;;;;;;;7.88;4.65;;;19.50;63.20;;;;;;4971970;28;20161;-83
2022/06/16 06:40:18;;;;;;;8.50;4.50;;;19.50;63.30;;;;;;4970376;28;20342;-83
2022/06/16 06:42:44;;;;;;;11.90;4.28;;;19.60;62.70;;;;;;4975558;28;20059;-83
2022/06/16 06:45:10;;;;;;;9.20;4.03;;;19.70;63.00;;;;;;4974928;28;20034;-83
2022/06/16 06:47:36;;;;;;;12.43;4.43;;;19.80;62.40;;;;;;4975675;28;20484;-83
2022/06/16 06:50:02;;;;;;;7.70;4.40;;;19.80;62.50;;;;;;4956319;28;20031;-83
2022/06/16 06:52:28;;;;;;;7.80;3.40;;;19.90;62.50;;;;;;4973458;28;20023;-84
2022/06/16 06:54:53;;;;;;;7.75;3.70;;;20.00;62.50;;;;;;4960590;28;20031;-83
2022/06/16 06:57:24;;;;;;;12.88;3.75;;;20.00;62.00;;;;;;4960538;28;20033;-83
2022/06/16 06:59:50;;;;;;;8.30;4.10;;;20.10;61.50;;;;;;4959917;28;20078;-84
2022/06/16 07:02:17;;;;;;;11.73;3.95;;;20.20;61.00;;;;;;4960630;28;20023;-83
2022/06/16 07:04:42;;;;;;;24.73;5.88;;;20.30;60.20;;;;;;4960195;28;20038;-83
2022/06/16 07:07:16;;;;;;;17.27;5.47;;;20.50;60.00;;;;;;4960568;28;20020;-83
2022/06/16 07:09:42;;;;;;;14.32;4.50;;;20.70;59.30;;;;;;4975026;28;20039;-83
2022/06/16 07:12:13;;;;;;;14.23;3.67;;;20.80;59.10;;;;;;4974324;28;20030;-84
2022/06/16 07:14:40;;;;;;;5.18;2.97;;;20.90;58.70;;;;;;4978414;28;20485;-83
2022/06/16 07:17:06;;;;;;;5.55;3.08;;;21.00;58.10;;;;;;4976564;28;20105;-83
2022/06/16 07:19:34;;;;;;;10.15;3.83;;;21.20;57.80;;;;;;4958490;28;20059;-83
2022/06/16 07:22:00;;;;;;;6.63;3.65;;;21.30;57.00;;;;;;4975171;28;20405;-83
2022/06/16 07:24:26;;;;;;;7.57;2.75;;;21.40;56.90;;;;;;4962124;28;20035;-82
2022/06/16 07:26:52;;;;;;;4.97;2.75;;;21.60;56.60;;;;;;4979110;28;20034;-82
2022/06/16 07:29:17;;;;;;;9.52;3.70;;;21.70;54.90;;;;;;4978142;28;20030;-82
2022/06/16 07:31:43;;;;;;;14.65;3.47;;;21.90;54.60;;;;;;4979319;28;20545;-82
2022/06/16 07:34:09;;;;;;;7.68;3.10;;;22.50;53.20;;;;;;4977814;28;20474;-82
2022/06/16 07:36:35;;;;;;;8.93;2.97;;;23.40;51.50;;;;;;4978989;28;20030;-82
2022/06/16 07:39:01;;;;;;;14.48;2.88;;;24.80;48.00;;;;;;4961813;28;20114;-83
2022/06/16 07:41:34;;;;;;;35.60;7.13;;;27.10;43.30;;;;;;4958432;28;20063;-84
2022/06/16 07:44:02;;;;;;;31.75;5.47;;;28.50;38.40;;;;;;4959771;28;20454;-84
2022/06/16 07:46:27;;;;;;;41.00;6.70;;;30.00;37.00;;;;;;4967132;28;20027;-84
2022/06/16 07:48:53;;;;;;;9.48;2.25;;;31.80;32.10;;;;;;4978831;28;20030;-83
2022/06/16 07:51:19;;;;;;;3.78;1.70;;;33.20;30.00;;;;;;4973458;28;20106;-84
2022/06/16 07:53:45;;;;;;;3.05;1.88;;;34.00;28.60;;;;;;4975381;28;20850;-82
2022/06/16 07:56:11;;;;;;;4.47;1.58;;;34.70;28.40;;;;;;4973475;28;20027;-87
2022/06/16 07:58:39;;;;;;;4.70;2.10;;;35.10;27.30;;;;;;4974982;28;20018;-86
2022/06/16 08:01:07;;;;;;;3.67;1.73;;;35.80;26.70;;;;;;4972139;28;20030;-85
2022/06/16 08:03:33;;;;;;;7.20;2.00;;;36.50;26.20;;;;;;4972520;28;20029;-84
2022/06/16 08:06:01;;;;;;;4.63;1.70;;;37.30;25.50;;;;;;4978328;28;20096;-84
2022/06/16 08:08:27;;;;;;;3.42;1.85;;;37.90;24.50;;;;;;4979664;28;20087;-84
2022/06/16 08:10:53;;;;;;;4.32;1.70;;;38.40;23.80;;;;;;4991600;28;20023;-84
2022/06/16 08:13:20;;;;;;;3.65;1.80;;;38.60;23.40;;;;;;4979509;28;20034;-84
2022/06/16 08:15:48;;;;;;;3.33;1.38;;;39.00;22.90;;;;;;4977217;28;20489;-84
2022/06/16 08:18:17;;;;;;;4.57;1.90;;;39.10;22.70;;;;;;4980266;28;20580;-84
2022/06/16 08:20:44;;;;;;;6.55;1.90;;;39.40;22.80;;;;;;4976007;28;20034;-83
2022/06/16 08:23:11;;;;;;;13.32;2.70;;;39.40;22.80;;;;;;4973448;28;20027;-85
2022/06/16 08:25:38;;;;;;;5.18;1.80;;;39.60;23.20;;;;;;4999912;28;20034;-84
2022/06/16 08:28:05;;;;;;;4.43;2.08;;;39.90;22.20;;;;;;4975479;28;20022;-85
2022/06/16 08:30:32;;;;;;;7.25;2.28;;;40.20;22.70;;;;;;4974078;28;20862;-85
2022/06/16 08:32:58;;;;;;;8.70;2.05;;;40.20;22.10;;;;;;4978658;28;20386;-83
2022/06/16 08:35:25;;;;;;;3.40;1.40;;;40.20;22.60;;;;;;4976400;28;20038;-84
2022/06/16 08:37:51;;;;;;;7.15;1.98;;;39.90;21.80;;;;;;4973571;28;20383;-83
2022/06/16 08:40:18;;;;;;;2.80;1.40;;;39.30;23.00;;;;;;4977809;28;20038;-84
2022/06/16 08:42:58;;;;;;;4.18;1.50;;;39.30;23.30;;;;;;4977003;28;20046;-85
2022/06/16 08:46:00;;;;;;;4.32;1.70;;;39.70;22.70;;;;;;4978534;28;20050;-84
2022/06/16 08:49:02;;;;;;;7.43;2.08;;;40.00;21.80;;;;;;4973030;28;20050;-84
2022/06/16 08:51:55;;;;;;;4.07;1.63;;;40.20;22.20;;;;;;4966036;28;20035;-84
2022/06/16 08:54:33;;;;;;;5.85;1.48;;;40.70;22.10;;;;;;4978977;28;20090;-84
2022/06/16 08:57:00;;;;;;;3.83;1.63;;;40.90;21.40;;;;;;4977822;28;20038;-85
2022/06/16 08:59:41;;;;;;;8.18;1.65;;;41.00;21.40;;;;;;4974791;28;20091;-83
2022/06/16 09:02:23;;;;;;;3.13;1.50;;;41.10;21.40;;;;;;4990588;28;20120;-84
2022/06/16 09:04:51;;;;;;;4.35;1.60;;;41.10;20.00;;;;;;4985643;28;20035;-84
2022/06/16 09:07:51;;;;;;;6.05;1.95;;;41.30;20.90;;;;;;4973797;28;20371;-84
2022/06/16 09:10:43;;;;;;;3.55;1.50;;;40.90;20.30;;;;;;4972442;28;20042;-84
2022/06/16 09:13:30;;;;;;;4.63;1.40;;;40.80;21.00;;;;;;4969525;28;20391;-84
2022/06/16 09:16:26;;;;;;;6.00;1.70;;;40.70;20.90;;;;;;4973489;28;20026;-84
2022/06/16 09:18:54;;;;;;;13.90;2.25;;;40.80;21.60;;;;;;4978177;28;20027;-84
2022/06/16 09:21:42;;;;;;;2.58;1.65;;;41.20;20.50;;;;;;4970261;28;20065;-85
2022/06/16 09:24:36;;;;;;;3.88;1.45;;;41.30;20.50;;;;;;4977820;28;20033;-84
2022/06/16 09:27:10;;;;;;;4.43;1.90;;;41.20;20.80;;;;;;4978360;28;20039;-85
2022/06/16 09:29:51;;;;;;;3.22;1.60;;;40.70;22.10;;;;;;4976262;28;20027;-83
2022/06/16 09:32:25;;;;;;;2.70;1.52;;;39.90;22.10;;;;;;4978505;28;20081;-82
2022/06/16 09:35:10;;;;;;;3.10;1.50;;;38.30;23.60;;;;;;4985021;28;20482;-86
2022/06/16 09:37:41;;;;;;;3.13;1.35;;;36.90;24.90;;;;;;4985111;28;20066;-81
2022/06/16 09:40:17;;;;;;;2.90;1.50;;;35.30;26.40;;;;;;4985870;28;20018;-83
2022/06/16 09:42:46;;;;;;;4.05;1.90;;;34.90;27.40;;;;;;4979059;28;20674;-83
2022/06/16 09:45:18;;;;;;;9.77;1.90;;;34.60;27.80;;;;;;4971541;28;20050;-85
2022/06/16 09:47:47;;;;;;;5.43;2.10;;;34.30;28.60;;;;;;4970504;28;20026;-86
2022/06/16 09:50:34;;;;;;;2.85;1.95;;;34.30;28.40;;;;;;4970044;28;20027;-86
2022/06/16 09:53:11;;;;;;;2.75;1.70;;;34.40;28.80;;;;;;4978775;28;20034;-86
2022/06/16 09:55:44;;;;;;;3.15;1.67;;;34.70;28.50;;;;;;4965053;28;20027;-85
2022/06/16 09:58:22;;;;;;;4.30;1.80;;;35.10;28.20;;;;;;4966546;28;20046;-87
2022/06/16 10:00:52;;;;;;;3.40;1.50;;;35.30;28.10;;;;;;4961999;28;20068;-85
2022/06/16 10:03:34;;;;;;;3.72;1.65;;;35.60;27.30;;;;;;4971410;28;20057;-87
2022/06/16 10:06:30;;;;;;;2.40;1.70;;;35.40;27.20;;;;;;4969670;28;20039;-87
2022/06/16 10:09:18;;;;;;;7.07;1.73;;;35.20;28.20;;;;;;4974927;28;20033;-86
2022/06/16 10:12:08;;;;;;;3.97;2.00;;;34.30;28.50;;;;;;4970496;28;20081;-86
2022/06/16 10:14:40;;;;;;;4.80;2.28;;;34.40;28.80;;;;;;4975197;28;20055;-85
2022/06/16 10:17:09;;;;;;;3.90;1.67;;;34.40;28.80;;;;;;4974838;28;20085;-85
2022/06/16 10:19:38;;;;;;;;;;;34.30;28.90;;;;;;4976694;28;20049;-85
2022/06/16 10:22:06;;;;;;;4.00;1.85;;;34.10;29.40;;;;;;4974613;28;20361;-86
2022/06/16 10:24:46;;;;;;;4.82;1.90;;;33.90;29.70;;;;;;4976093;28;20026;-86
2022/06/16 10:27:15;;;;;;;2.75;1.60;;;33.90;30.00;;;;;;4960184;28;20023;-86
2022/06/16 10:29:56;;;;;;;2.78;1.90;;;33.80;30.30;;;;;;4963563;28;20047;-85
2022/06/16 10:32:36;;;;;;;2.88;1.75;;;33.90;28.90;;;;;;4963436;28;20079;-86
2022/06/16 10:35:04;;;;;;;2.42;1.40;;;34.20;29.80;;;;;;4978411;28;20043;-86
2022/06/16 10:37:30;;;;;;;3.40;1.83;;;34.40;30.00;;;;;;4963512;28;20026;-86
2022/06/16 10:40:11;;;;;;;5.05;1.90;;;34.60;28.90;;;;;;4981384;28;20038;-87
2022/06/16 10:42:50;;;;;;;2.72;1.75;;;34.60;29.50;;;;;;4982339;28;20106;-86
2022/06/16 10:45:34;;;;;;;3.95;1.80;;;34.10;28.90;;;;;;4972328;28;20039;-86
2022/06/16 10:48:16;;;;;;;3.22;1.63;;;33.90;30.20;;;;;;4978064;28;20035;-85
2022/06/16 10:50:48;;;;;;;4.63;1.67;;;33.60;30.30;;;;;;4978366;28;20094;-85
2022/06/16 10:53:26;;;;;;;4.72;1.65;;;33.70;31.10;;;;;;4978067;28;20067;-85
2022/06/16 10:56:02;;;;;;;3.83;1.73;;;33.60;28.50;;;;;;4977746;28;20042;-86
2022/06/16 10:58:31;;;;;;;3.47;1.58;;;33.30;28.70;;;;;;4982240;28;20027;-85
2022/06/16 11:01:04;;;;;;;4.78;1.65;;;33.50;29.10;;;;;;4981034;28;20035;-84
2022/06/16 11:03:44;;;;;;;3.88;1.50;;;33.50;29.70;;;;;;4964370;28;20046;-86
2022/06/16 11:06:16;;;;;;;2.67;1.23;;;33.10;28.40;;;;;;4963446;28;20085;-84
2022/06/16 11:08:46;;;;;;;2.40;1.40;;;32.90;27.70;;;;;;4963833;28;20082;-85
2022/06/16 11:11:15;;;;;;;4.25;1.58;;;32.80;27.50;;;;;;4968372;28;20052;-83
2022/06/16 11:14:02;;;;;;;4.47;1.63;;;32.70;28.70;;;;;;4981036;28;20050;-84
2022/06/16 11:16:37;;;;;;;6.13;1.50;;;32.20;27.90;;;;;;4982139;28;20081;-84
2022/06/16 11:19:08;;;;;;;2.85;1.60;;;32.30;30.10;;;;;;4997355;28;20023;-83
2022/06/16 11:21:35;;;;;;;3.45;1.50;;;32.60;27.80;;;;;;4980898;28;20034;-84
2022/06/16 11:24:05;;;;;;;3.42;1.55;;;32.70;28.20;;;;;;4973096;28;20031;-83
2022/06/16 11:26:33;;;;;;;4.03;1.30;;;32.50;27.40;;;;;;4963011;28;20039;-84
2022/06/16 11:29:01;;;;;;;5.18;1.83;;;32.40;28.80;;;;;;4962541;28;20034;-84
2022/06/16 11:31:48;;;;;;;3.22;1.65;;;32.30;27.30;;;;;;4970899;28;20051;-84
2022/06/16 11:34:24;;;;;;;2.13;1.48;;;31.70;29.10;;;;;;4977292;28;20757;-84
2022/06/16 11:37:00;;;;;;;3.70;1.20;;;31.90;29.40;;;;;;4962772;28;20024;-84
2022/06/16 11:39:35;;;;;;;3.50;1.50;;;31.90;29.30;;;;;;4960448;28;20019;-83
2022/06/16 11:42:00;;;;;;;3.17;1.83;;;32.10;29.00;;;;;;4959634;28;20047;-84
2022/06/16 11:44:48;;;;;;;3.42;1.50;;;32.30;29.30;;;;;;4974703;28;20035;-84
2022/06/16 11:47:53;;;;;;;2.97;1.40;;;32.10;29.20;;;;;;4959592;28;20035;-84
2022/06/16 11:50:38;;;;;;;4.13;1.50;;;31.70;28.40;;;;;;4959619;28;20106;-84
2022/06/16 11:53:22;;;;;;;3.15;1.38;;;31.50;27.70;;;;;;4959503;28;20023;-84
2022/06/16 11:56:01;;;;;;;2.92;1.40;;;31.30;28.10;;;;;;4974290;28;20043;-85
2022/06/16 11:58:36;;;;;;;;;;;31.20;28.90;;;;;;4974819;28;20047;-83
2022/06/16 12:01:26;;;;;;;2.83;1.25;;;31.10;27.00;;;;;;4959521;28;20296;-84
2022/06/16 12:04:12;;;;;;;2.45;1.48;;;31.10;28.40;;;;;;4959383;28;20102;-84
2022/06/16 12:07:05;;;;;;;2.92;1.50;;;31.30;28.10;;;;;;4938784;28;20740;-83
2022/06/16 12:09:52;;;;;;;3.28;1.77;;;31.10;28.80;;;;;;4959151;28;20087;-83
2022/06/16 12:12:40;;;;;;;2.45;1.45;;;31.10;29.90;;;;;;4983449;28;20023;-84
2022/06/16 12:15:34;;;;;;;3.75;1.40;;;31.20;29.00;;;;;;4978482;28;20030;-84
2022/06/16 12:18:33;;;;;;;2.72;1.33;;;31.20;28.20;;;;;;4974171;28;20035;-84
2022/06/16 12:21:08;;;;;;;2.65;1.70;;;31.30;28.00;;;;;;4978496;28;20090;-84
2022/06/16 12:24:12;;;;;;;2.17;1.25;;;31.30;26.20;;;;;;4977869;28;20109;-84
2022/06/16 12:26:45;;;;;;;5.43;1.45;;;31.30;27.80;;;;;;4961132;28;20035;-81
2022/06/16 12:29:26;;;;;;;4.05;1.25;;;31.00;26.60;;;;;;4957829;28;20039;-83
2022/06/16 12:32:04;;;;;;;2.60;1.42;;;30.80;25.40;;;;;;4957822;28;20030;-84
2022/06/16 12:34:48;;;;;;;2.40;1.13;;;31.00;27.60;;;;;;4958752;28;20034;-83
2022/06/16 12:37:19;;;;;;;3.03;1.60;;;31.00;27.00;;;;;;4958811;28;20035;-84
2022/06/16 12:39:55;;;;;;;2.92;1.45;;;31.20;27.80;;;;;;4968394;28;20034;-83
2022/06/16 12:42:26;;;;;;;4.95;1.90;;;31.10;27.60;;;;;;4976302;28;20085;-83
2022/06/16 12:45:05;;;;;;;4.85;1.63;;;31.10;28.30;;;;;;4978019;28;20518;-83
2022/06/16 12:47:39;;;;;;;4.13;1.77;;;31.30;30.00;;;;;;4977939;28;20085;-83
2022/06/16 12:50:14;;;;;;;3.63;1.30;;;31.40;28.10;;;;;;4975189;28;20042;-84
2022/06/16 12:52:54;;;;;;;2.80;1.42;;;31.50;30.20;;;;;;4972600;28;20028;-83
2022/06/16 12:55:34;;;;;;;5.47;1.75;;;31.30;27.90;;;;;;4958546;28;20090;-83
2022/06/16 12:58:23;;;;;;;;;;;31.40;29.00;;;;;;4973446;28;20058;-83
2022/06/16 13:00:55;;;;;;;2.60;1.20;;;31.40;32.90;;;;;;4955465;28;20463;-83
2022/06/16 13:03:33;;;;;;;5.22;1.40;;;31.60;30.40;;;;;;4972853;28;20042;-83
2022/06/16 13:05:59;;;;;;;2.33;1.52;;;31.60;29.30;;;;;;4958236;28;20027;-84
2022/06/16 13:08:33;;;;;;;3.53;1.88;;;31.40;27.50;;;;;;4958114;28;20062;-83
2022/06/16 13:11:03;;;;;;;4.55;1.45;;;31.40;30.40;;;;;;4962685;28;20106;-83
2022/06/16 13:13:45;;;;;;;6.70;1.80;;;31.30;29.10;;;;;;4977285;28;20034;-84
2022/06/16 13:16:17;;;;;;;2.22;1.58;;;31.30;29.60;;;;;;4976997;28;20069;-83
2022/06/16 13:18:50;;;;;;;5.13;1.50;;;31.40;32.20;;;;;;4963470;28;20473;-83
2022/06/16 13:21:28;;;;;;;2.13;1.45;;;31.50;31.80;;;;;;4958145;28;20037;-83
2022/06/16 13:24:12;;;;;;;2.63;1.42;;;31.50;30.40;;;;;;4958204;28;20043;-83
2022/06/16 13:26:42;;;;;;;3.92;1.67;;;31.50;30.20;;;;;;4956780;28;20035;-84
2022/06/16 13:29:17;;;;;;;3.85;1.50;;;31.40;29.20;;;;;;4972558;28;20046;-83
2022/06/16 13:31:42;;;;;;;4.25;1.83;;;31.30;29.70;;;;;;4985421;28;20493;-83
2022/06/16 13:34:08;;;;;;;2.03;1.33;;;31.40;29.40;;;;;;4957507;28;20122;-84
2022/06/16 13:36:33;;;;;;;4.22;1.70;;;31.60;31.60;;;;;;4957808;28;20078;-84